sensor_id;sensor_type;location;lat;lon;timestamp;P1;durP1;ratioP1;P2;durP2;ratioP2
63010;SDS011;49100;48.842;2.166;2023-02-15T00:01:48;38.25;;;29.75;;
63010;SDS011;49100;48.842;2.166;2023-02-15T00:04:33;33.75;;;28.25;;
63010;SDS011;49100;48.842;2.166;2023-02-15T00:07:32;36.75;;;30.25;;
63010;SDS011;49100;48.842;2.166;2023-02-15T00:10:16;45.25;;;32.00;;
63010;SDS011;49100;48.842;2.166;2023-02-15T00:15:52;32.00;;;29.75;;
63010;SDS011;49100;48.842;2.166;2023-02-15T00:18:37;40.25;;;31.50;;
63010;SDS011;49100;48.842;2.166;2023-02-15T00:21:21;35.25;;;31.00;;
63010;SDS011;49100;48.842;2.166;2023-02-15T00:24:06;39.50;;;32.00;;
63010;SDS011;49100;48.842;2.166;2023-02-15T00:26:51;35.75;;;30.50;;
63010;SDS011;49100;48.842;2.166;2023-02-15T00:29:35;32.00;;;28.25;;
63010;SDS011;49100;48.842;2.166;2023-02-15T00:32:19;41.50;;;31.00;;
63010;SDS011;49100;48.842;2.166;2023-02-15T00:35:03;35.25;;;29.00;;
63010;SDS011;49100;48.842;2.166;2023-02-15T00:37:48;37.75;;;30.25;;
63010;SDS011;49100;48.842;2.166;2023-02-15T00:40:32;31.00;;;28.25;;
63010;SDS011;49100;48.842;2.166;2023-02-15T00:43:16;35.00;;;30.25;;
63010;SDS011;49100;48.842;2.166;2023-02-15T00:46:01;37.50;;;32.00;;
63010;SDS011;49100;48.842;2.166;2023-02-15T00:48:45;36.75;;;31.25;;
63010;SDS011;49100;48.842;2.166;2023-02-15T00:51:29;35.25;;;31.50;;
63010;SDS011;49100;48.842;2.166;2023-02-15T00:54:13;40.75;;;29.25;;
63010;SDS011;49100;48.842;2.166;2023-02-15T00:56:57;28.50;;;26.00;;
63010;SDS011;49100;48.842;2.166;2023-02-15T00:59:42;25.25;;;22.50;;
63010;SDS011;49100;48.842;2.166;2023-02-15T01:02:26;37.75;;;32.50;;
63010;SDS011;49100;48.842;2.166;2023-02-15T01:05:11;38.25;;;29.50;;
63010;SDS011;49100;48.842;2.166;2023-02-15T01:07:56;35.50;;;30.00;;
63010;SDS011;49100;48.842;2.166;2023-02-15T01:10:40;38.50;;;29.50;;
63010;SDS011;49100;48.842;2.166;2023-02-15T01:13:24;45.25;;;31.50;;
63010;SDS011;49100;48.842;2.166;2023-02-15T01:16:09;37.50;;;30.50;;
63010;SDS011;49100;48.842;2.166;2023-02-15T01:18:54;34.50;;;30.00;;
63010;SDS011;49100;48.842;2.166;2023-02-15T01:21:41;34.25;;;28.75;;
63010;SDS011;49100;48.842;2.166;2023-02-15T01:24:25;34.75;;;31.00;;
63010;SDS011;49100;48.842;2.166;2023-02-15T01:27:10;39.75;;;32.25;;
63010;SDS011;49100;48.842;2.166;2023-02-15T01:29:54;33.25;;;31.00;;
63010;SDS011;49100;48.842;2.166;2023-02-15T01:32:39;40.75;;;31.50;;
63010;SDS011;49100;48.842;2.166;2023-02-15T01:35:24;38.00;;;30.75;;
63010;SDS011;49100;48.842;2.166;2023-02-15T01:38:08;37.75;;;31.00;;
63010;SDS011;49100;48.842;2.166;2023-02-15T01:40:53;35.75;;;29.75;;
63010;SDS011;49100;48.842;2.166;2023-02-15T01:43:41;38.25;;;31.75;;
63010;SDS011;49100;48.842;2.166;2023-02-15T01:46:31;35.50;;;32.75;;
63010;SDS011;49100;48.842;2.166;2023-02-15T01:49:18;33.50;;;30.00;;
63010;SDS011;49100;48.842;2.166;2023-02-15T01:52:03;41.25;;;34.00;;
63010;SDS011;49100;48.842;2.166;2023-02-15T01:54:47;41.25;;;33.75;;
63010;SDS011;49100;48.842;2.166;2023-02-15T01:57:32;42.25;;;33.50;;
63010;SDS011;49100;48.842;2.166;2023-02-15T02:00:16;40.75;;;35.00;;
63010;SDS011;49100;48.842;2.166;2023-02-15T02:03:01;43.75;;;34.75;;
63010;SDS011;49100;48.842;2.166;2023-02-15T02:05:46;39.00;;;33.00;;
63010;SDS011;49100;48.842;2.166;2023-02-15T02:08:30;41.50;;;35.50;;
63010;SDS011;49100;48.842;2.166;2023-02-15T02:11:15;45.00;;;37.00;;
63010;SDS011;49100;48.842;2.166;2023-02-15T02:14:00;47.25;;;35.75;;
63010;SDS011;49100;48.842;2.166;2023-02-15T02:19:41;44.25;;;35.50;;
63010;SDS011;49100;48.842;2.166;2023-02-15T02:34:01;42.50;;;33.00;;
63010;SDS011;49100;48.842;2.166;2023-02-15T02:36:57;43.75;;;35.25;;
63010;SDS011;49100;48.842;2.166;2023-02-15T02:42:31;45.00;;;39.00;;
63010;SDS011;49100;48.842;2.166;2023-02-15T02:45:20;46.50;;;37.25;;
63010;SDS011;49100;48.842;2.166;2023-02-15T02:48:09;51.25;;;41.00;;
63010;SDS011;49100;48.842;2.166;2023-02-15T02:50:56;50.75;;;38.75;;
63010;SDS011;49100;48.842;2.166;2023-02-15T02:53:40;49.50;;;37.25;;
63010;SDS011;49100;48.842;2.166;2023-02-15T02:56:37;48.25;;;38.50;;
63010;SDS011;49100;48.842;2.166;2023-02-15T02:59:31;50.00;;;39.00;;
63010;SDS011;49100;48.842;2.166;2023-02-15T03:02:17;45.50;;;35.75;;
63010;SDS011;49100;48.842;2.166;2023-02-15T03:05:06;47.25;;;39.25;;
63010;SDS011;49100;48.842;2.166;2023-02-15T03:07:51;47.50;;;38.75;;
63010;SDS011;49100;48.842;2.166;2023-02-15T03:10:37;43.25;;;36.25;;
63010;SDS011;49100;48.842;2.166;2023-02-15T03:13:23;39.50;;;34.50;;
63010;SDS011;49100;48.842;2.166;2023-02-15T03:16:07;46.25;;;37.00;;
63010;SDS011;49100;48.842;2.166;2023-02-15T03:19:12;43.00;;;34.75;;
63010;SDS011;49100;48.842;2.166;2023-02-15T03:22:08;46.75;;;36.75;;
63010;SDS011;49100;48.842;2.166;2023-02-15T03:25:40;40.75;;;35.25;;
63010;SDS011;49100;48.842;2.166;2023-02-15T03:28:08;47.00;;;37.50;;
63010;SDS011;49100;48.842;2.166;2023-02-15T03:30:55;45.25;;;34.00;;
63010;SDS011;49100;48.842;2.166;2023-02-15T03:33:44;45.50;;;36.50;;
63010;SDS011;49100;48.842;2.166;2023-02-15T03:42:22;44.75;;;36.00;;
63010;SDS011;49100;48.842;2.166;2023-02-15T03:45:10;44.75;;;36.00;;
63010;SDS011;49100;48.842;2.166;2023-02-15T03:47:55;41.50;;;33.00;;
63010;SDS011;49100;48.842;2.166;2023-02-15T03:50:41;40.25;;;35.00;;
63010;SDS011;49100;48.842;2.166;2023-02-15T03:57:25;44.00;;;36.50;;
63010;SDS011;49100;48.842;2.166;2023-02-15T04:00:29;48.00;;;37.75;;
63010;SDS011;49100;48.842;2.166;2023-02-15T04:03:38;50.50;;;38.00;;
63010;SDS011;49100;48.842;2.166;2023-02-15T04:06:23;45.00;;;37.00;;
63010;SDS011;49100;48.842;2.166;2023-02-15T04:09:08;51.75;;;39.00;;
63010;SDS011;49100;48.842;2.166;2023-02-15T04:12:11;46.75;;;38.75;;
63010;SDS011;49100;48.842;2.166;2023-02-15T04:14:55;44.25;;;35.00;;
63010;SDS011;49100;48.842;2.166;2023-02-15T04:17:58;46.25;;;38.75;;
63010;SDS011;49100;48.842;2.166;2023-02-15T04:20:43;47.50;;;36.00;;
63010;SDS011;49100;48.842;2.166;2023-02-15T04:23:46;50.00;;;37.50;;
63010;SDS011;49100;48.842;2.166;2023-02-15T04:26:49;47.50;;;36.75;;
63010;SDS011;49100;48.842;2.166;2023-02-15T04:29:36;49.75;;;39.75;;
63010;SDS011;49100;48.842;2.166;2023-02-15T04:32:20;46.50;;;39.00;;
63010;SDS011;49100;48.842;2.166;2023-02-15T04:35:05;49.25;;;38.50;;
63010;SDS011;49100;48.842;2.166;2023-02-15T04:37:50;49.75;;;39.00;;
63010;SDS011;49100;48.842;2.166;2023-02-15T04:40:34;50.00;;;40.75;;
63010;SDS011;49100;48.842;2.166;2023-02-15T04:43:19;45.00;;;35.50;;
63010;SDS011;49100;48.842;2.166;2023-02-15T04:46:03;46.50;;;36.50;;
63010;SDS011;49100;48.842;2.166;2023-02-15T04:48:47;48.50;;;39.25;;
63010;SDS011;49100;48.842;2.166;2023-02-15T04:51:32;41.50;;;35.25;;
63010;SDS011;49100;48.842;2.166;2023-02-15T04:54:16;48.75;;;38.75;;
63010;SDS011;49100;48.842;2.166;2023-02-15T04:57:01;52.25;;;39.00;;
63010;SDS011;49100;48.842;2.166;2023-02-15T04:59:45;49.50;;;37.25;;
63010;SDS011;49100;48.842;2.166;2023-02-15T05:02:30;47.75;;;35.75;;
63010;SDS011;49100;48.842;2.166;2023-02-15T05:05:14;46.75;;;37.00;;
63010;SDS011;49100;48.842;2.166;2023-02-15T05:07:59;44.75;;;36.25;;
63010;SDS011;49100;48.842;2.166;2023-02-15T05:10:43;49.75;;;38.25;;
63010;SDS011;49100;48.842;2.166;2023-02-15T05:13:27;46.50;;;38.25;;
63010;SDS011;49100;48.842;2.166;2023-02-15T05:16:12;45.25;;;36.50;;
63010;SDS011;49100;48.842;2.166;2023-02-15T05:18:56;44.00;;;36.00;;
63010;SDS011;49100;48.842;2.166;2023-02-15T05:21:41;44.50;;;35.75;;
63010;SDS011;49100;48.842;2.166;2023-02-15T05:24:25;48.75;;;39.50;;
63010;SDS011;49100;48.842;2.166;2023-02-15T05:27:28;55.25;;;43.25;;
63010;SDS011;49100;48.842;2.166;2023-02-15T05:30:31;42.25;;;33.25;;
63010;SDS011;49100;48.842;2.166;2023-02-15T05:33:15;53.00;;;40.00;;
63010;SDS011;49100;48.842;2.166;2023-02-15T05:35:59;47.00;;;39.75;;
63010;SDS011;49100;48.842;2.166;2023-02-15T05:38:43;46.00;;;37.75;;
63010;SDS011;49100;48.842;2.166;2023-02-15T05:41:28;53.25;;;40.50;;
63010;SDS011;49100;48.842;2.166;2023-02-15T05:44:12;51.50;;;40.75;;
63010;SDS011;49100;48.842;2.166;2023-02-15T05:46:57;50.00;;;40.50;;
63010;SDS011;49100;48.842;2.166;2023-02-15T05:49:41;54.25;;;43.25;;
63010;SDS011;49100;48.842;2.166;2023-02-15T05:52:26;56.25;;;44.75;;
63010;SDS011;49100;48.842;2.166;2023-02-15T05:55:10;60.75;;;46.50;;
63010;SDS011;49100;48.842;2.166;2023-02-15T05:57:55;61.25;;;47.50;;
63010;SDS011;49100;48.842;2.166;2023-02-15T06:00:39;60.50;;;47.25;;
63010;SDS011;49100;48.842;2.166;2023-02-15T06:03:24;64.25;;;47.75;;
63010;SDS011;49100;48.842;2.166;2023-02-15T06:06:09;72.00;;;55.50;;
63010;SDS011;49100;48.842;2.166;2023-02-15T06:08:54;65.25;;;50.75;;
63010;SDS011;49100;48.842;2.166;2023-02-15T06:11:39;67.50;;;50.50;;
63010;SDS011;49100;48.842;2.166;2023-02-15T06:14:24;65.50;;;49.75;;
63010;SDS011;49100;48.842;2.166;2023-02-15T06:17:09;62.00;;;47.75;;
63010;SDS011;49100;48.842;2.166;2023-02-15T06:19:53;62.00;;;48.00;;
63010;SDS011;49100;48.842;2.166;2023-02-15T06:22:38;61.50;;;47.25;;
63010;SDS011;49100;48.842;2.166;2023-02-15T06:25:22;65.50;;;48.75;;
63010;SDS011;49100;48.842;2.166;2023-02-15T06:28:08;91.25;;;75.00;;
63010;SDS011;49100;48.842;2.166;2023-02-15T06:30:52;70.25;;;56.25;;
63010;SDS011;49100;48.842;2.166;2023-02-15T06:33:37;68.00;;;51.75;;
63010;SDS011;49100;48.842;2.166;2023-02-15T06:36:22;64.25;;;50.25;;
63010;SDS011;49100;48.842;2.166;2023-02-15T06:39:06;66.00;;;52.25;;
63010;SDS011;49100;48.842;2.166;2023-02-15T06:41:50;64.00;;;48.50;;
63010;SDS011;49100;48.842;2.166;2023-02-15T06:44:35;72.00;;;56.75;;
63010;SDS011;49100;48.842;2.166;2023-02-15T06:47:19;68.75;;;52.50;;
63010;SDS011;49100;48.842;2.166;2023-02-15T06:50:05;62.25;;;49.75;;
63010;SDS011;49100;48.842;2.166;2023-02-15T06:52:49;56.50;;;43.25;;
63010;SDS011;49100;48.842;2.166;2023-02-15T06:55:33;73.00;;;60.25;;
63010;SDS011;49100;48.842;2.166;2023-02-15T06:58:18;69.75;;;53.25;;
63010;SDS011;49100;48.842;2.166;2023-02-15T07:01:02;71.00;;;54.00;;
63010;SDS011;49100;48.842;2.166;2023-02-15T07:03:46;66.00;;;52.50;;
63010;SDS011;49100;48.842;2.166;2023-02-15T07:06:34;70.25;;;57.00;;
63010;SDS011;49100;48.842;2.166;2023-02-15T07:09:19;69.25;;;51.50;;
63010;SDS011;49100;48.842;2.166;2023-02-15T07:12:03;65.75;;;51.50;;
63010;SDS011;49100;48.842;2.166;2023-02-15T07:15:06;72.25;;;60.25;;
63010;SDS011;49100;48.842;2.166;2023-02-15T07:17:51;67.50;;;50.00;;
63010;SDS011;49100;48.842;2.166;2023-02-15T07:20:36;68.25;;;52.00;;
63010;SDS011;49100;48.842;2.166;2023-02-15T07:23:21;65.75;;;50.75;;
63010;SDS011;49100;48.842;2.166;2023-02-15T07:26:06;68.75;;;52.50;;
63010;SDS011;49100;48.842;2.166;2023-02-15T07:28:50;65.00;;;51.50;;
63010;SDS011;49100;48.842;2.166;2023-02-15T07:31:35;64.00;;;50.00;;
63010;SDS011;49100;48.842;2.166;2023-02-15T07:34:21;64.50;;;51.25;;
63010;SDS011;49100;48.842;2.166;2023-02-15T07:37:05;63.00;;;49.25;;
63010;SDS011;49100;48.842;2.166;2023-02-15T07:39:50;66.75;;;51.25;;
63010;SDS011;49100;48.842;2.166;2023-02-15T07:42:34;63.75;;;49.75;;
63010;SDS011;49100;48.842;2.166;2023-02-15T07:45:19;64.25;;;48.75;;
63010;SDS011;49100;48.842;2.166;2023-02-15T07:48:04;63.00;;;48.25;;
63010;SDS011;49100;48.842;2.166;2023-02-15T07:50:48;70.00;;;55.00;;
63010;SDS011;49100;48.842;2.166;2023-02-15T07:53:36;64.75;;;52.00;;
63010;SDS011;49100;48.842;2.166;2023-02-15T07:56:21;60.50;;;48.00;;
63010;SDS011;49100;48.842;2.166;2023-02-15T07:59:05;61.00;;;47.75;;
63010;SDS011;49100;48.842;2.166;2023-02-15T08:01:52;64.25;;;49.75;;
63010;SDS011;49100;48.842;2.166;2023-02-15T08:04:37;59.75;;;45.50;;
63010;SDS011;49100;48.842;2.166;2023-02-15T08:07:23;60.00;;;46.50;;
63010;SDS011;49100;48.842;2.166;2023-02-15T08:10:07;56.75;;;45.25;;
63010;SDS011;49100;48.842;2.166;2023-02-15T08:12:51;61.75;;;47.00;;
63010;SDS011;49100;48.842;2.166;2023-02-15T08:15:36;61.50;;;49.00;;
63010;SDS011;49100;48.842;2.166;2023-02-15T08:18:20;61.00;;;45.00;;
63010;SDS011;49100;48.842;2.166;2023-02-15T08:21:05;59.50;;;45.50;;
63010;SDS011;49100;48.842;2.166;2023-02-15T08:23:49;60.50;;;45.25;;
63010;SDS011;49100;48.842;2.166;2023-02-15T08:26:34;55.00;;;43.25;;
63010;SDS011;49100;48.842;2.166;2023-02-15T08:29:20;56.50;;;45.50;;
63010;SDS011;49100;48.842;2.166;2023-02-15T08:32:07;57.00;;;44.00;;
63010;SDS011;49100;48.842;2.166;2023-02-15T08:34:52;58.75;;;47.00;;
63010;SDS011;49100;48.842;2.166;2023-02-15T08:37:37;59.75;;;45.25;;
63010;SDS011;49100;48.842;2.166;2023-02-15T08:40:21;58.00;;;45.75;;
63010;SDS011;49100;48.842;2.166;2023-02-15T08:43:06;61.75;;;47.00;;
63010;SDS011;49100;48.842;2.166;2023-02-15T08:45:51;60.25;;;47.25;;
63010;SDS011;49100;48.842;2.166;2023-02-15T08:48:35;58.00;;;46.25;;
63010;SDS011;49100;48.842;2.166;2023-02-15T08:51:20;56.50;;;44.50;;
63010;SDS011;49100;48.842;2.166;2023-02-15T08:54:06;57.75;;;44.00;;
63010;SDS011;49100;48.842;2.166;2023-02-15T08:56:52;59.00;;;46.00;;
63010;SDS011;49100;48.842;2.166;2023-02-15T08:59:36;54.75;;;45.25;;
63010;SDS011;49100;48.842;2.166;2023-02-15T09:02:21;54.75;;;44.25;;
63010;SDS011;49100;48.842;2.166;2023-02-15T09:05:05;56.75;;;45.00;;
63010;SDS011;49100;48.842;2.166;2023-02-15T09:07:50;59.50;;;44.00;;
63010;SDS011;49100;48.842;2.166;2023-02-15T09:10:34;62.50;;;48.00;;
63010;SDS011;49100;48.842;2.166;2023-02-15T09:13:19;56.75;;;44.75;;
63010;SDS011;49100;48.842;2.166;2023-02-15T09:16:08;59.75;;;45.50;;
63010;SDS011;49100;48.842;2.166;2023-02-15T09:18:52;58.25;;;47.00;;
63010;SDS011;49100;48.842;2.166;2023-02-15T09:21:37;44.25;;;32.25;;
63010;SDS011;49100;48.842;2.166;2023-02-15T09:24:21;57.50;;;46.00;;
63010;SDS011;49100;48.842;2.166;2023-02-15T09:27:06;59.00;;;47.75;;
63010;SDS011;49100;48.842;2.166;2023-02-15T09:29:50;60.00;;;48.00;;
63010;SDS011;49100;48.842;2.166;2023-02-15T09:32:35;56.75;;;44.25;;
63010;SDS011;49100;48.842;2.166;2023-02-15T09:35:19;59.00;;;44.75;;
63010;SDS011;49100;48.842;2.166;2023-02-15T09:38:04;59.00;;;46.50;;
63010;SDS011;49100;48.842;2.166;2023-02-15T09:41:10;58.25;;;45.75;;
63010;SDS011;49100;48.842;2.166;2023-02-15T09:56:15;57.75;;;45.25;;
63010;SDS011;49100;48.842;2.166;2023-02-15T09:59:10;57.25;;;44.50;;
63010;SDS011;49100;48.842;2.166;2023-02-15T10:13:11;55.25;;;41.50;;
63010;SDS011;49100;48.842;2.166;2023-02-15T10:16:17;53.00;;;43.00;;
63010;SDS011;49100;48.842;2.166;2023-02-15T10:19:13;52.75;;;41.50;;
63010;SDS011;49100;48.842;2.166;2023-02-15T10:27:55;54.50;;;40.75;;
63010;SDS011;49100;48.842;2.166;2023-02-15T10:30:47;53.75;;;41.75;;
63010;SDS011;49100;48.842;2.166;2023-02-15T10:33:42;58.25;;;41.75;;
63010;SDS011;49100;48.842;2.166;2023-02-15T10:39:19;52.25;;;40.00;;
63010;SDS011;49100;48.842;2.166;2023-02-15T10:47:52;47.25;;;38.75;;
63010;SDS011;49100;48.842;2.166;2023-02-15T10:50:52;50.50;;;40.50;;
63010;SDS011;49100;48.842;2.166;2023-02-15T10:59:23;49.75;;;38.50;;
63010;SDS011;49100;48.842;2.166;2023-02-15T11:02:18;50.50;;;37.00;;
63010;SDS011;49100;48.842;2.166;2023-02-15T11:08:10;49.50;;;37.75;;
63010;SDS011;49100;48.842;2.166;2023-02-15T11:10:59;49.25;;;37.75;;
63010;SDS011;49100;48.842;2.166;2023-02-15T11:13:47;46.25;;;37.50;;
63010;SDS011;49100;48.842;2.166;2023-02-15T11:16:34;48.75;;;35.75;;
63010;SDS011;49100;48.842;2.166;2023-02-15T11:19:28;52.50;;;38.75;;
63010;SDS011;49100;48.842;2.166;2023-02-15T11:22:14;47.00;;;36.25;;
63010;SDS011;49100;48.842;2.166;2023-02-15T11:24:59;49.50;;;38.50;;
63010;SDS011;49100;48.842;2.166;2023-02-15T11:27:46;47.25;;;38.50;;
63010;SDS011;49100;48.842;2.166;2023-02-15T11:30:40;46.50;;;37.75;;
63010;SDS011;49100;48.842;2.166;2023-02-15T11:33:29;44.00;;;36.00;;
63010;SDS011;49100;48.842;2.166;2023-02-15T11:36:34;47.50;;;36.00;;
63010;SDS011;49100;48.842;2.166;2023-02-15T11:39:20;48.50;;;36.50;;
63010;SDS011;49100;48.842;2.166;2023-02-15T11:42:06;45.75;;;36.50;;
63010;SDS011;49100;48.842;2.166;2023-02-15T11:47:41;41.75;;;35.00;;
63010;SDS011;49100;48.842;2.166;2023-02-15T11:50:28;47.25;;;36.25;;
63010;SDS011;49100;48.842;2.166;2023-02-15T11:53:19;44.75;;;36.50;;
63010;SDS011;49100;48.842;2.166;2023-02-15T11:56:05;44.75;;;37.75;;
63010;SDS011;49100;48.842;2.166;2023-02-15T11:59:00;41.25;;;34.50;;
63010;SDS011;49100;48.842;2.166;2023-02-15T12:01:45;43.50;;;34.75;;
63010;SDS011;49100;48.842;2.166;2023-02-15T12:04:35;43.25;;;37.00;;
63010;SDS011;49100;48.842;2.166;2023-02-15T12:07:30;43.50;;;35.25;;
63010;SDS011;49100;48.842;2.166;2023-02-15T12:10:17;47.25;;;36.75;;
63010;SDS011;49100;48.842;2.166;2023-02-15T12:13:16;48.75;;;38.50;;
63010;SDS011;49100;48.842;2.166;2023-02-15T12:16:04;45.25;;;35.25;;
63010;SDS011;49100;48.842;2.166;2023-02-15T12:18:50;44.75;;;35.50;;
63010;SDS011;49100;48.842;2.166;2023-02-15T12:21:39;50.00;;;37.50;;
63010;SDS011;49100;48.842;2.166;2023-02-15T12:24:26;42.50;;;35.00;;
63010;SDS011;49100;48.842;2.166;2023-02-15T12:27:15;44.50;;;34.00;;
63010;SDS011;49100;48.842;2.166;2023-02-15T12:32:54;48.00;;;36.25;;
63010;SDS011;49100;48.842;2.166;2023-02-15T12:35:40;44.25;;;34.50;;
63010;SDS011;49100;48.842;2.166;2023-02-15T12:38:25;45.50;;;35.50;;
63010;SDS011;49100;48.842;2.166;2023-02-15T12:41:23;44.50;;;35.00;;
63010;SDS011;49100;48.842;2.166;2023-02-15T12:44:18;46.50;;;35.75;;
63010;SDS011;49100;48.842;2.166;2023-02-15T12:47:17;44.50;;;35.25;;
63010;SDS011;49100;48.842;2.166;2023-02-15T12:53:05;45.00;;;34.50;;
63010;SDS011;49100;48.842;2.166;2023-02-15T12:55:51;34.50;;;29.50;;
63010;SDS011;49100;48.842;2.166;2023-02-15T12:58:37;46.75;;;35.75;;
63010;SDS011;49100;48.842;2.166;2023-02-15T13:01:22;45.00;;;36.75;;
63010;SDS011;49100;48.842;2.166;2023-02-15T13:04:29;42.00;;;35.50;;
63010;SDS011;49100;48.842;2.166;2023-02-15T13:07:12;43.50;;;33.50;;
63010;SDS011;49100;48.842;2.166;2023-02-15T13:09:57;45.50;;;38.00;;
63010;SDS011;49100;48.842;2.166;2023-02-15T13:12:41;48.00;;;37.00;;
63010;SDS011;49100;48.842;2.166;2023-02-15T13:15:36;43.75;;;36.75;;
63010;SDS011;49100;48.842;2.166;2023-02-15T13:18:30;43.50;;;36.00;;
63010;SDS011;49100;48.842;2.166;2023-02-15T13:21:16;41.00;;;32.75;;
63010;SDS011;49100;48.842;2.166;2023-02-15T13:24:05;50.25;;;36.25;;
63010;SDS011;49100;48.842;2.166;2023-02-15T13:26:50;46.00;;;34.75;;
63010;SDS011;49100;48.842;2.166;2023-02-15T13:29:36;47.50;;;34.50;;
63010;SDS011;49100;48.842;2.166;2023-02-15T13:32:26;48.50;;;35.50;;
63010;SDS011;49100;48.842;2.166;2023-02-15T13:35:16;44.50;;;33.75;;
63010;SDS011;49100;48.842;2.166;2023-02-15T13:38:02;41.00;;;34.75;;
63010;SDS011;49100;48.842;2.166;2023-02-15T13:40:55;42.25;;;31.75;;
63010;SDS011;49100;48.842;2.166;2023-02-15T13:44:47;40.50;;;30.50;;
63010;SDS011;49100;48.842;2.166;2023-02-15T13:50:27;37.25;;;31.75;;
63010;SDS011;49100;48.842;2.166;2023-02-15T14:02:15;34.75;;;29.50;;
63010;SDS011;49100;48.842;2.166;2023-02-15T14:05:25;42.75;;;30.75;;
63010;SDS011;49100;48.842;2.166;2023-02-15T14:10:57;41.00;;;31.25;;
63010;SDS011;49100;48.842;2.166;2023-02-15T14:22:10;40.75;;;32.25;;
63010;SDS011;49100;48.842;2.166;2023-02-15T14:30:58;38.50;;;31.00;;
63010;SDS011;49100;48.842;2.166;2023-02-15T14:33:44;35.75;;;30.00;;
63010;SDS011;49100;48.842;2.166;2023-02-15T14:36:31;43.75;;;32.00;;
63010;SDS011;49100;48.842;2.166;2023-02-15T14:42:21;31.25;;;29.50;;
63010;SDS011;49100;48.842;2.166;2023-02-15T14:50:50;33.75;;;31.25;;
63010;SDS011;49100;48.842;2.166;2023-02-15T14:53:35;44.75;;;32.75;;
63010;SDS011;49100;48.842;2.166;2023-02-15T14:56:22;30.25;;;27.25;;
63010;SDS011;49100;48.842;2.166;2023-02-15T14:59:21;43.25;;;32.50;;
63010;SDS011;49100;48.842;2.166;2023-02-15T15:18:56;41.25;;;33.50;;
63010;SDS011;49100;48.842;2.166;2023-02-15T15:27:47;44.00;;;35.50;;
63010;SDS011;49100;48.842;2.166;2023-02-15T15:30:51;42.00;;;32.50;;
63010;SDS011;49100;48.842;2.166;2023-02-15T15:33:46;42.75;;;33.50;;
63010;SDS011;49100;48.842;2.166;2023-02-15T15:48:29;46.00;;;34.75;;
63010;SDS011;49100;48.842;2.166;2023-02-15T15:51:17;40.75;;;33.25;;
63010;SDS011;49100;48.842;2.166;2023-02-15T15:54:02;43.25;;;33.75;;
63010;SDS011;49100;48.842;2.166;2023-02-15T15:56:49;43.50;;;32.75;;
63010;SDS011;49100;48.842;2.166;2023-02-15T15:59:35;46.75;;;34.75;;
63010;SDS011;49100;48.842;2.166;2023-02-15T16:02:19;35.00;;;27.00;;
63010;SDS011;49100;48.842;2.166;2023-02-15T16:05:07;45.75;;;33.25;;
63010;SDS011;49100;48.842;2.166;2023-02-15T16:07:52;34.75;;;27.25;;
63010;SDS011;49100;48.842;2.166;2023-02-15T16:13:22;43.75;;;33.50;;
63010;SDS011;49100;48.842;2.166;2023-02-15T16:16:07;47.25;;;35.00;;
63010;SDS011;49100;48.842;2.166;2023-02-15T16:18:51;43.50;;;34.25;;
63010;SDS011;49100;48.842;2.166;2023-02-15T16:21:35;44.25;;;36.00;;
63010;SDS011;49100;48.842;2.166;2023-02-15T16:24:32;40.00;;;33.00;;
63010;SDS011;49100;48.842;2.166;2023-02-15T16:35:57;45.75;;;33.00;;
63010;SDS011;49100;48.842;2.166;2023-02-15T16:41:34;42.00;;;33.75;;
63010;SDS011;49100;48.842;2.166;2023-02-15T16:44:19;47.50;;;34.50;;
63010;SDS011;49100;48.842;2.166;2023-02-15T16:47:04;43.50;;;33.50;;
63010;SDS011;49100;48.842;2.166;2023-02-15T16:49:51;40.50;;;33.25;;
63010;SDS011;49100;48.842;2.166;2023-02-15T16:52:37;40.50;;;32.50;;
63010;SDS011;49100;48.842;2.166;2023-02-15T16:55:22;43.25;;;33.50;;
63010;SDS011;49100;48.842;2.166;2023-02-15T16:58:07;46.00;;;35.25;;
63010;SDS011;49100;48.842;2.166;2023-02-15T17:00:57;38.50;;;32.50;;
63010;SDS011;49100;48.842;2.166;2023-02-15T17:03:42;45.00;;;35.00;;
63010;SDS011;49100;48.842;2.166;2023-02-15T17:06:26;47.00;;;37.25;;
63010;SDS011;49100;48.842;2.166;2023-02-15T17:09:40;45.50;;;36.00;;
63010;SDS011;49100;48.842;2.166;2023-02-15T17:13:15;46.50;;;37.25;;
63010;SDS011;49100;48.842;2.166;2023-02-15T17:15:46;46.50;;;35.25;;
63010;SDS011;49100;48.842;2.166;2023-02-15T17:18:48;46.75;;;33.00;;
63010;SDS011;49100;48.842;2.166;2023-02-15T17:21:32;51.25;;;38.25;;
63010;SDS011;49100;48.842;2.166;2023-02-15T17:24:19;49.75;;;35.00;;
63010;SDS011;49100;48.842;2.166;2023-02-15T17:27:06;43.50;;;35.00;;
63010;SDS011;49100;48.842;2.166;2023-02-15T17:29:52;46.25;;;36.25;;
63010;SDS011;49100;48.842;2.166;2023-02-15T17:32:43;46.50;;;35.25;;
63010;SDS011;49100;48.842;2.166;2023-02-15T17:35:35;45.50;;;36.00;;
63010;SDS011;49100;48.842;2.166;2023-02-15T17:38:22;45.75;;;36.25;;
63010;SDS011;49100;48.842;2.166;2023-02-15T17:41:06;46.75;;;36.00;;
63010;SDS011;49100;48.842;2.166;2023-02-15T17:43:50;45.25;;;35.50;;
63010;SDS011;49100;48.842;2.166;2023-02-15T17:46:35;45.50;;;38.00;;
63010;SDS011;49100;48.842;2.166;2023-02-15T17:49:24;48.75;;;37.00;;
63010;SDS011;49100;48.842;2.166;2023-02-15T17:52:17;33.25;;;27.25;;
63010;SDS011;49100;48.842;2.166;2023-02-15T17:55:07;46.50;;;35.00;;
63010;SDS011;49100;48.842;2.166;2023-02-15T17:57:53;49.00;;;38.00;;
63010;SDS011;49100;48.842;2.166;2023-02-15T18:00:41;45.25;;;37.25;;
63010;SDS011;49100;48.842;2.166;2023-02-15T18:03:49;39.50;;;34.25;;
63010;SDS011;49100;48.842;2.166;2023-02-15T18:06:52;50.25;;;38.25;;
63010;SDS011;49100;48.842;2.166;2023-02-15T18:09:55;47.25;;;36.25;;
63010;SDS011;49100;48.842;2.166;2023-02-15T18:12:58;44.75;;;34.00;;
63010;SDS011;49100;48.842;2.166;2023-02-15T18:15:42;48.25;;;33.75;;
63010;SDS011;49100;48.842;2.166;2023-02-15T18:18:27;46.25;;;35.25;;
63010;SDS011;49100;48.842;2.166;2023-02-15T18:21:11;44.00;;;35.50;;
63010;SDS011;49100;48.842;2.166;2023-02-15T18:23:55;47.75;;;37.75;;
63010;SDS011;49100;48.842;2.166;2023-02-15T18:26:39;37.25;;;33.00;;
63010;SDS011;49100;48.842;2.166;2023-02-15T18:29:24;49.25;;;37.50;;
63010;SDS011;49100;48.842;2.166;2023-02-15T18:32:30;50.75;;;36.00;;
63010;SDS011;49100;48.842;2.166;2023-02-15T18:35:13;47.00;;;35.00;;
63010;SDS011;49100;48.842;2.166;2023-02-15T18:37:58;43.50;;;34.75;;
63010;SDS011;49100;48.842;2.166;2023-02-15T18:40:43;34.25;;;31.25;;
63010;SDS011;49100;48.842;2.166;2023-02-15T18:43:27;47.00;;;36.00;;
63010;SDS011;49100;48.842;2.166;2023-02-15T18:46:12;44.50;;;36.00;;
63010;SDS011;49100;48.842;2.166;2023-02-15T18:48:56;47.00;;;37.00;;
63010;SDS011;49100;48.842;2.166;2023-02-15T18:51:42;47.50;;;37.50;;
63010;SDS011;49100;48.842;2.166;2023-02-15T18:54:27;49.50;;;36.50;;
63010;SDS011;49100;48.842;2.166;2023-02-15T18:57:11;43.75;;;34.00;;
63010;SDS011;49100;48.842;2.166;2023-02-15T18:59:56;44.25;;;36.00;;
63010;SDS011;49100;48.842;2.166;2023-02-15T19:02:41;47.00;;;38.00;;
63010;SDS011;49100;48.842;2.166;2023-02-15T19:05:25;49.50;;;35.25;;
63010;SDS011;49100;48.842;2.166;2023-02-15T19:08:16;49.75;;;38.00;;
63010;SDS011;49100;48.842;2.166;2023-02-15T19:11:17;43.75;;;34.75;;
63010;SDS011;49100;48.842;2.166;2023-02-15T19:14:02;43.25;;;35.50;;